»·PEaware :: ASA877 KSNA-KSFO

ASA877 :: KSNA-KSFO

FLIGHT INFORMATION

Flight Status: Arrived
Operator:
Alaska Airlines
More flights by this operator :: More flights under this callsign
Pilot: Anthony T. (15846)
Aircraft: BOEING 737-800
(B738)
More flights by this aircraft type
Origin: KSNA John Wayne-Orange Co
United States
Destination: KSFO San Francisco Intl
United States
More flights between these airports :: More routes between these airports
Route: HHERO2 IKAYE RIZIN SPLNT STOKD SERFR SERFR3
File this flight plan on PilotEdge
Remarks:
Altitude:
(Current/Filed)
28,000ft
Speed:
(Current/Filed)
315kts
Departed: 02-May-18 07:19 PM
Arrived: 02-May-18 08:19 PM
Distance/Time
Traveled:
323nm/1:00
Distance/Time
To Go:
Arrived

Flight Plot

Page will automatically refresh every two minutes.

Flight plan parsing failed; only flown route is shown


Map Options




Map Legend


Flown Route
Filed Route
Departure Airport
Arrival Airport
Navaid (VOR, NDB)
Fix

Horizontal Profiles

Position Reports

Time Latitude Longitude Heading Altitude Ground
Speed
02-May-18 19:05 33.678343 -117.863053 117 64ft 0kts
02-May-18 19:06 33.678343 -117.863053 117 64ft 0kts
02-May-18 19:07 33.678343 -117.863053 117 64ft 0kts
02-May-18 19:08 33.678343 -117.863053 117 64ft 0kts
02-May-18 19:09 33.678343 -117.863053 117 64ft 0kts
02-May-18 19:11 33.678343 -117.863053 117 64ft 0kts
02-May-18 19:12 33.678389 -117.863158 116 64ft 6kts
02-May-18 19:13 33.678330 -117.863811 27 64ft 0kts
02-May-18 19:14 33.678330 -117.863811 27 64ft 0kts
02-May-18 19:15 33.679766 -117.862899 26 64ft 9kts
02-May-18 19:16 33.680606 -117.862982 304 64ft 0kts
02-May-18 19:17 33.680992 -117.863772 298 64ft 11kts
02-May-18 19:18 33.680691 -117.865669 208 64ft 27kts
02-May-18 19:19 33.637034 -117.882311 190 2183ft 239kts
02-May-18 19:20 33.568375 -117.906745 219 5611ft 272kts
02-May-18 19:21 33.511923 -117.967160 224 9069ft 286kts
02-May-18 19:22 33.461594 -118.041882 240 12569ft 300kts
02-May-18 19:23 33.418975 -118.136421 259 15757ft 347kts
02-May-18 19:24 33.430346 -118.250302 284 18770ft 354kts
02-May-18 19:25 33.460623 -118.362994 278 21754ft 369kts
02-May-18 19:26 33.491235 -118.477038 319 24730ft 375kts
02-May-18 19:27 33.581713 -118.540184 326 27720ft 382kts
02-May-18 19:28 33.675241 -118.616673 324 28022ft 443kts
02-May-18 19:29 33.779338 -118.703754 324 28086ft 461kts
02-May-18 19:30 33.883974 -118.791592 324 28149ft 461kts
02-May-18 19:31 33.987878 -118.879135 324 28152ft 455kts
02-May-18 19:32 34.090843 -118.966127 325 28149ft 450kts
02-May-18 19:33 34.173873 -119.072395 307 28150ft 454kts
02-May-18 19:34 34.241354 -119.200987 305 28149ft 454kts
02-May-18 19:35 34.307961 -119.330658 305 28147ft 455kts
02-May-18 19:36 34.374564 -119.460866 305 28142ft 455kts
02-May-18 19:37 34.450730 -119.580253 316 28135ft 449kts
02-May-18 19:38 34.537896 -119.688380 316 28137ft 449kts
02-May-18 19:39 34.625359 -119.796383 317 28139ft 449kts
02-May-18 19:40 34.712589 -119.904383 316 28149ft 450kts
02-May-18 19:41 34.799712 -120.012620 317 28160ft 449kts
02-May-18 19:42 34.886902 -120.121290 317 28159ft 449kts
02-May-18 19:43 34.973879 -120.230137 318 28157ft 451kts
02-May-18 19:44 35.061512 -120.340021 319 28156ft 453kts
02-May-18 19:45 35.152293 -120.445093 322 28165ft 451kts
02-May-18 19:46 35.244091 -120.548105 322 28159ft 451kts
02-May-18 19:47 35.336334 -120.651924 321 28158ft 451kts
02-May-18 19:48 35.427967 -120.755393 321 28141ft 452kts
02-May-18 19:49 35.523006 -120.854661 326 28113ft 449kts
02-May-18 19:50 35.622033 -120.946762 326 28108ft 448kts
02-May-18 19:51 35.720844 -121.038766 327 28106ft 449kts
02-May-18 19:52 35.820375 -121.131755 327 28105ft 450kts
02-May-18 19:53 35.919840 -121.224969 327 28111ft 450kts
02-May-18 19:54 36.018729 -121.317940 327 28000ft 451kts
02-May-18 19:55 36.120059 -121.405015 331 27553ft 450kts
02-May-18 19:56 36.221971 -121.484535 331 25377ft 434kts
02-May-18 19:57 36.321884 -121.562765 331 22905ft 424kts
02-May-18 19:58 36.419800 -121.639680 331 20414ft 413kts
02-May-18 19:58 36.496286 -121.700009 330 20021ft 359kts
02-May-18 19:59 36.576560 -121.763354 330 18123ft 345kts
02-May-18 20:00 36.656428 -121.826604 329 15607ft 337kts
02-May-18 20:01 36.734177 -121.887469 336 14994ft 332kts
02-May-18 20:02 36.821748 -121.916226 348 12973ft 324kts
02-May-18 20:03 36.908752 -121.940807 347 10597ft 323kts
02-May-18 20:04 36.991425 -121.968601 342 9140ft 309kts
02-May-18 20:05 37.070268 -121.999226 342 7825ft 284kts
02-May-18 20:06 37.137824 -122.025657 342 7817ft 250kts
02-May-18 20:07 37.197698 -122.049271 343 7201ft 225kts
02-May-18 20:08 37.255918 -122.071939 343 6029ft 238kts
02-May-18 20:09 37.316995 -122.095987 343 6001ft 241kts
02-May-18 20:10 37.377420 -122.117722 344 5052ft 222kts
02-May-18 20:11 37.431673 -122.136986 344 3538ft 193kts
02-May-18 20:12 37.478587 -122.153665 344 3116ft 169kts
02-May-18 20:13 37.522842 -122.169399 344 3112ft 160kts
02-May-18 20:14 37.548179 -122.210199 302 3104ft 149kts
02-May-18 20:15 37.568344 -122.255365 297 1912ft 143kts
02-May-18 20:16 37.587073 -122.299729 296 1070ft 143kts
02-May-18 20:17 37.605641 -122.343993 294 305ft 143kts
02-May-18 20:18 37.618963 -122.375663 298 23ft 25kts
02-May-18 20:19 37.619623 -122.379349 229 30ft 0kts

Navigation Log

Ident Type
Flight plan parsing failed, navigation log unavailable